createdAt,value
2018-03-24T00:01:33.988Z,99.90
2018-03-24T00:04:09.178Z,99.90
2018-03-24T00:06:45.034Z,99.90
2018-03-24T00:09:20.141Z,99.90
2018-03-24T00:11:55.219Z,98.70
2018-03-24T00:14:31.093Z,97.50
2018-03-24T00:17:06.297Z,97.50
2018-03-24T00:19:41.513Z,99.60
2018-03-24T00:22:16.668Z,99.90
2018-03-24T00:24:52.914Z,99.90
2018-03-24T00:27:28.014Z,99.90
2018-03-24T00:30:03.097Z,99.90
2018-03-24T00:32:38.157Z,99.90
2018-03-24T00:42:08.215Z,99.90
2018-03-24T00:44:43.675Z,99.90
2018-03-24T00:47:19.132Z,99.90
2018-03-24T00:49:54.495Z,99.90
2018-03-24T00:52:29.981Z,99.90
2018-03-24T00:55:05.199Z,99.90
2018-03-24T00:57:40.433Z,99.90
2018-03-24T01:00:15.574Z,99.90
2018-03-24T01:02:51.030Z,99.90
2018-03-24T01:05:26.317Z,99.90
2018-03-24T01:08:01.631Z,99.90
2018-03-24T01:10:36.994Z,99.90
2018-03-24T01:13:12.292Z,99.90
2018-03-24T01:15:48.207Z,99.90
2018-03-24T01:18:23.377Z,99.90
2018-03-24T01:20:58.899Z,99.90
2018-03-24T01:23:34.243Z,99.90
2018-03-24T01:26:09.650Z,99.90
2018-03-24T01:28:44.985Z,99.90
2018-03-24T01:31:20.248Z,99.90
2018-03-24T01:33:55.615Z,99.90
2018-03-24T01:36:31.839Z,99.90
2018-03-24T01:39:07.046Z,99.90
2018-03-24T01:41:43.128Z,99.90
2018-03-24T01:44:19.099Z,99.90
2018-03-24T01:46:55.045Z,99.90
2018-03-24T01:49:30.973Z,99.90
2018-03-24T01:52:07.124Z,99.90
2018-03-24T01:54:44.101Z,99.90
2018-03-24T01:57:20.299Z,99.90
2018-03-24T01:59:55.767Z,99.90
2018-03-24T02:02:31.153Z,99.90
2018-03-24T02:05:06.418Z,99.90
2018-03-24T02:07:41.792Z,99.90
2018-03-24T02:10:17.087Z,99.90
2018-03-24T02:12:52.557Z,99.90
2018-03-24T02:18:17.370Z,99.90
2018-03-24T02:20:58.911Z,99.90
2018-03-24T02:23:34.541Z,99.90
2018-03-24T02:26:09.897Z,99.90
2018-03-24T02:28:45.174Z,99.90
2018-03-24T02:31:21.164Z,99.90
2018-03-24T02:33:56.444Z,99.90
2018-03-24T02:36:31.735Z,99.90
2018-03-24T02:39:07.016Z,99.90
2018-03-24T02:41:42.317Z,99.90
2018-03-24T02:44:18.578Z,99.90
2018-03-24T02:46:54.576Z,99.90
2018-03-24T02:49:30.126Z,99.90
2018-03-24T02:52:05.583Z,99.90
2018-03-24T02:54:40.881Z,99.90
2018-03-24T02:57:16.323Z,99.90
2018-03-24T02:59:51.634Z,99.90
2018-03-24T03:02:27.574Z,99.90
2018-03-24T03:05:02.792Z,99.90
2018-03-24T03:07:38.728Z,99.90
2018-03-24T03:10:14.379Z,99.90
2018-03-24T03:12:49.558Z,99.90
2018-03-24T03:15:24.700Z,99.90
2018-03-24T03:18:00.037Z,99.90
2018-03-24T03:20:35.341Z,99.90
2018-03-24T03:23:10.704Z,99.90
2018-03-24T03:25:46.287Z,99.90
2018-03-24T03:28:21.481Z,99.90
2018-03-24T03:33:51.582Z,99.90
2018-03-24T03:36:27.666Z,99.90
2018-03-24T03:39:03.020Z,99.90
2018-03-24T03:41:39.391Z,99.90
2018-03-24T03:44:14.637Z,99.90
2018-03-24T03:46:49.800Z,99.90
2018-03-24T03:49:25.107Z,99.90
2018-03-24T03:52:00.400Z,99.90
2018-03-24T03:54:35.599Z,99.90
2018-03-24T03:57:10.845Z,99.90
2018-03-24T03:59:46.153Z,99.90
2018-03-24T04:02:21.483Z,99.90
2018-03-24T04:04:56.956Z,99.90
2018-03-24T04:07:32.222Z,99.90
2018-03-24T04:10:08.215Z,99.90
2018-03-24T04:12:44.198Z,99.90
2018-03-24T04:15:20.154Z,99.90
2018-03-24T04:17:55.304Z,99.90
2018-03-24T04:20:30.489Z,99.90
2018-03-24T04:23:05.735Z,99.90
2018-03-24T04:25:40.836Z,99.90
2018-03-24T04:28:16.204Z,99.90
2018-03-24T04:30:51.358Z,99.90
2018-03-24T04:33:26.513Z,99.90
2018-03-24T04:36:01.857Z,99.90
2018-03-24T04:38:37.121Z,99.90
2018-03-24T04:41:12.273Z,99.90
2018-03-24T04:43:47.686Z,99.90
2018-03-24T04:46:24.648Z,99.90
2018-03-24T04:48:59.778Z,99.90
2018-03-24T04:51:35.040Z,99.90
2018-03-24T04:54:11.207Z,99.90
2018-03-24T04:56:47.679Z,99.90
2018-03-24T04:59:23.050Z,99.90
2018-03-24T05:01:59.057Z,99.90
2018-03-24T05:04:34.162Z,99.90
2018-03-24T05:07:09.599Z,99.90
2018-03-24T05:09:45.599Z,99.90
2018-03-24T05:12:20.769Z,99.90
2018-03-24T05:14:56.088Z,99.90
2018-03-24T05:17:31.350Z,99.90
2018-03-24T05:20:06.527Z,99.90
2018-03-24T05:22:42.591Z,99.90
2018-03-24T05:25:18.571Z,99.90
2018-03-24T05:27:53.918Z,99.90
2018-03-24T05:30:29.129Z,99.90
2018-03-24T05:33:04.410Z,99.90
2018-03-24T05:35:39.603Z,99.90
2018-03-24T05:38:15.656Z,99.90
2018-03-24T05:40:50.925Z,99.90
2018-03-24T05:43:26.989Z,99.90
2018-03-24T05:46:02.188Z,99.90
2018-03-24T05:48:37.586Z,99.90
2018-03-24T05:51:12.854Z,99.90
2018-03-24T05:53:48.164Z,99.90
2018-03-24T05:56:23.401Z,99.90
2018-03-24T05:58:58.712Z,99.90
2018-03-24T06:01:33.871Z,99.90
2018-03-24T06:04:09.173Z,99.90
2018-03-24T06:06:44.491Z,99.90
2018-03-24T06:09:19.971Z,99.90
2018-03-24T06:11:55.161Z,99.90
2018-03-24T06:14:30.276Z,99.90
2018-03-24T06:17:05.666Z,99.90
2018-03-24T06:19:41.693Z,99.90
2018-03-24T06:22:16.819Z,99.90
2018-03-24T06:24:52.028Z,99.90
2018-03-24T06:27:28.299Z,99.90
2018-03-24T06:30:18.454Z,99.90
2018-03-24T06:32:53.885Z,99.90
2018-03-24T06:35:29.857Z,99.90
2018-03-24T06:38:05.202Z,99.90
2018-03-24T06:40:40.491Z,99.90
2018-03-24T06:43:17.615Z,99.90
2018-03-24T06:45:52.894Z,99.90
2018-03-24T06:48:28.140Z,99.90
2018-03-24T06:51:03.599Z,99.90
2018-03-24T06:53:39.050Z,99.90
2018-03-24T06:56:14.329Z,99.90
2018-03-24T06:58:50.143Z,99.90
2018-03-24T07:01:26.567Z,99.90
2018-03-24T07:04:01.814Z,99.90
2018-03-24T07:06:38.340Z,99.90
2018-03-24T07:09:13.646Z,99.90
2018-03-24T07:11:49.244Z,99.90
2018-03-24T07:14:25.742Z,99.90
2018-03-24T07:17:01.153Z,99.90
2018-03-24T07:19:36.322Z,99.90
2018-03-24T07:22:11.659Z,99.90
2018-03-24T07:24:47.189Z,99.90
2018-03-24T07:27:23.254Z,99.90
2018-03-24T07:29:58.470Z,99.90
2018-03-24T07:32:33.922Z,99.90
2018-03-24T07:35:09.922Z,99.90
2018-03-24T07:37:45.491Z,99.90
2018-03-24T07:40:20.656Z,99.90
2018-03-24T07:42:55.870Z,99.90
2018-03-24T07:45:31.824Z,99.90
2018-03-24T07:48:07.188Z,99.90
2018-03-24T07:50:42.332Z,99.90
2018-03-24T07:53:18.130Z,99.90
2018-03-24T07:55:53.393Z,99.00
2018-03-24T07:58:29.575Z,99.90
2018-03-24T08:01:05.179Z,99.90
2018-03-24T08:03:40.577Z,99.40
2018-03-24T08:06:16.605Z,94.90
2018-03-24T08:08:51.740Z,94.70
2018-03-24T08:11:27.733Z,81.30
2018-03-24T08:14:04.555Z,68.70
2018-03-24T08:16:39.984Z,68.50
2018-03-24T08:19:15.147Z,67.80
2018-03-24T08:21:51.119Z,61.80
2018-03-24T08:24:26.486Z,61.90
2018-03-24T08:27:02.542Z,59.80
2018-03-24T08:29:38.429Z,57.20
2018-03-24T08:32:13.735Z,57.20
2018-03-24T08:34:48.930Z,53.20
2018-03-24T08:37:24.176Z,52.70
2018-03-24T08:40:00.297Z,50.30
2018-03-24T08:42:36.125Z,49.80
2018-03-24T08:45:11.272Z,49.80
2018-03-24T08:47:46.529Z,48.90
2018-03-24T08:50:22.480Z,50.40
2018-03-24T08:52:57.625Z,50.40
2018-03-24T08:55:33.067Z,50.10
2018-03-24T08:58:09.130Z,48.30
2018-03-24T09:00:44.552Z,48.20
2018-03-24T09:03:20.186Z,47.60
2018-03-24T09:05:55.359Z,47.20
2018-03-24T09:08:30.638Z,45.60
2018-03-24T09:11:06.572Z,46.50
2018-03-24T09:13:41.987Z,46.40
2018-03-24T09:16:17.130Z,44.60
2018-03-24T09:18:52.614Z,44.70
2018-03-24T09:21:27.897Z,43.10
2018-03-24T09:24:04.403Z,45.70
2018-03-24T09:26:39.665Z,43.60
2018-03-24T09:29:15.011Z,43.50
2018-03-24T09:31:50.306Z,44.30
2018-03-24T09:34:25.945Z,42.80
2018-03-24T09:37:01.430Z,42.30
2018-03-24T09:39:36.876Z,43.70
2018-03-24T09:42:12.181Z,42.70
2018-03-24T09:44:47.455Z,42.00
2018-03-24T09:47:22.591Z,40.00
2018-03-24T09:49:59.445Z,30.90
2018-03-24T09:52:34.708Z,31.40
2018-03-24T09:55:09.836Z,31.40
2018-03-24T09:57:45.018Z,33.10
2018-03-24T10:00:20.981Z,30.20
2018-03-24T10:02:56.311Z,30.20
2018-03-24T10:05:32.591Z,31.50
2018-03-24T10:08:07.735Z,31.40
2018-03-24T10:10:43.092Z,32.40
2018-03-24T10:13:18.233Z,35.00
2018-03-24T10:15:54.640Z,36.10
2018-03-24T10:18:29.776Z,36.00
2018-03-24T10:35:16.679Z,38.60
2018-03-24T10:37:57.157Z,38.20
2018-03-24T10:40:39.045Z,38.50
2018-03-24T10:43:19.713Z,39.60
2018-03-24T10:45:55.821Z,36.90
2018-03-24T10:48:35.180Z,38.80
2018-03-24T10:51:21.020Z,38.90
2018-03-24T10:53:59.192Z,38.50
2018-03-24T10:56:34.816Z,37.40
2018-03-24T10:59:23.610Z,38.20
2018-03-24T11:02:07.895Z,39.20
2018-03-24T11:04:48.741Z,36.40
2018-03-24T11:07:41.726Z,36.10
2018-03-24T11:10:17.972Z,35.10
2018-03-24T11:12:55.067Z,35.10
2018-03-24T11:15:32.160Z,36.10
2018-03-24T11:18:32.573Z,36.60
2018-03-24T11:26:54.850Z,38.50
2018-03-24T11:29:40.399Z,38.30
2018-03-24T11:44:52.479Z,34.10
2018-03-24T11:47:27.652Z,35.70
2018-03-24T11:50:03.672Z,36.70
2018-03-24T11:52:40.210Z,36.10
2018-03-24T11:55:15.341Z,36.10
2018-03-24T11:57:50.432Z,34.70
2018-03-24T12:00:25.936Z,35.00
2018-03-24T12:03:01.273Z,34.40
2018-03-24T12:05:37.430Z,36.20
2018-03-24T12:08:12.575Z,38.30
2018-03-24T12:10:47.806Z,38.60
2018-03-24T12:13:23.220Z,37.50
2018-03-24T12:15:59.175Z,37.90
2018-03-24T12:18:34.461Z,37.90
2018-03-24T12:21:10.064Z,37.60
2018-03-24T12:23:45.158Z,38.30
2018-03-24T12:26:22.473Z,38.30
2018-03-24T12:28:57.757Z,38.40
2018-03-24T12:31:33.319Z,39.50
2018-03-24T12:34:09.416Z,38.20
2018-03-24T12:36:44.736Z,38.20
2018-03-24T12:39:19.913Z,39.50
2018-03-24T12:41:55.172Z,39.30
2018-03-24T12:44:30.874Z,39.60
2018-03-24T12:47:06.048Z,38.20
2018-03-24T12:49:41.270Z,39.10
2018-03-24T12:52:16.610Z,38.50
2018-03-24T12:54:53.064Z,38.10
2018-03-24T12:57:28.169Z,37.70
2018-03-24T13:00:03.479Z,36.70
2018-03-24T13:02:39.099Z,36.10
2018-03-24T13:05:15.116Z,36.80
2018-03-24T13:07:53.831Z,36.80
2018-03-24T13:10:33.578Z,34.50
2018-03-24T13:13:08.688Z,34.60
2018-03-24T13:15:44.008Z,35.80
2018-03-24T13:18:19.459Z,36.40
2018-03-24T13:20:55.252Z,36.10
2018-03-24T13:23:30.256Z,35.70
2018-03-24T13:26:05.626Z,37.00
2018-03-24T13:28:40.763Z,36.20
2018-03-24T13:31:16.774Z,35.40
2018-03-24T13:33:52.741Z,35.70
2018-03-24T13:36:27.863Z,35.70
2018-03-24T13:39:03.117Z,34.50
2018-03-24T13:41:38.384Z,33.30
2018-03-24T13:44:13.786Z,33.60
2018-03-24T13:46:49.084Z,34.00
2018-03-24T13:49:25.019Z,32.00
2018-03-24T13:52:00.327Z,32.80
2018-03-24T13:54:35.796Z,33.70
2018-03-24T13:57:10.941Z,33.80
2018-03-24T13:59:46.200Z,35.90
2018-03-24T14:02:21.291Z,34.60
2018-03-24T14:04:56.623Z,35.10
2018-03-24T14:07:31.830Z,35.60
2018-03-24T14:10:07.119Z,34.10
2018-03-24T14:12:42.346Z,34.00
2018-03-24T14:15:17.537Z,33.60
2018-03-24T14:17:53.483Z,34.00
2018-03-24T14:20:28.721Z,33.90
2018-03-24T14:23:04.041Z,34.50
2018-03-24T14:25:39.631Z,33.80
2018-03-24T14:28:14.960Z,32.70
2018-03-24T14:30:50.260Z,34.10
2018-03-24T14:33:26.220Z,34.80
2018-03-24T14:36:01.393Z,34.80
2018-03-24T14:38:36.555Z,36.20
2018-03-24T14:41:12.508Z,34.20
2018-03-24T14:43:48.530Z,34.40
2018-03-24T14:46:23.726Z,34.40
2018-03-24T14:48:58.845Z,35.00
2018-03-24T14:51:34.422Z,35.60
2018-03-24T14:54:10.312Z,35.50
2018-03-24T14:56:47.371Z,34.10
2018-03-24T14:59:22.683Z,34.10
2018-03-24T15:01:57.976Z,34.20
2018-03-24T15:04:33.956Z,32.80
2018-03-24T15:07:09.862Z,32.90
2018-03-24T15:09:45.840Z,32.30
2018-03-24T15:12:21.830Z,32.30
2018-03-24T15:14:56.925Z,32.30
2018-03-24T15:17:32.134Z,33.40
2018-03-24T15:20:08.158Z,33.50
2018-03-24T15:22:43.283Z,33.50
2018-03-24T15:25:18.488Z,35.00
2018-03-24T15:27:53.810Z,35.50
2018-03-24T15:30:46.919Z,35.50
2018-03-24T15:33:40.962Z,34.90
2018-03-24T15:36:34.785Z,33.20
2018-03-24T15:39:10.123Z,33.20
2018-03-24T15:41:46.186Z,33.20
2018-03-24T15:44:21.658Z,33.20
2018-03-24T15:46:56.734Z,33.10
2018-03-24T15:49:32.350Z,33.50
2018-03-24T15:52:07.434Z,33.50
2018-03-24T15:54:43.393Z,33.80
2018-03-24T15:57:18.529Z,33.80
2018-03-24T15:59:53.651Z,34.10
2018-03-24T16:02:28.887Z,35.10
2018-03-24T16:05:04.000Z,35.60
2018-03-24T16:07:39.214Z,35.40
2018-03-24T16:10:15.421Z,34.80
2018-03-24T16:12:50.782Z,34.80
2018-03-24T16:15:26.156Z,34.00
2018-03-24T16:18:01.419Z,35.00
2018-03-24T16:20:36.721Z,34.60
2018-03-24T16:23:12.352Z,35.20
2018-03-24T16:25:47.610Z,34.90
2018-03-24T16:28:22.938Z,33.30
2018-03-24T16:30:58.057Z,33.30
2018-03-24T16:33:33.595Z,33.80
2018-03-24T16:36:09.467Z,35.00
2018-03-24T16:38:44.899Z,34.40
2018-03-24T16:41:20.813Z,34.50
2018-03-24T16:43:55.962Z,34.40
2018-03-24T16:46:31.130Z,34.80
2018-03-24T16:49:06.283Z,35.50
2018-03-24T16:51:41.399Z,34.30
2018-03-24T16:54:16.667Z,35.20
2018-03-24T16:56:52.621Z,35.00
2018-03-24T16:59:27.820Z,35.00
2018-03-24T17:02:03.030Z,34.70
2018-03-24T17:04:38.474Z,35.10
2018-03-24T17:07:13.732Z,34.50
2018-03-24T17:09:49.914Z,35.90
2018-03-24T17:12:25.185Z,35.90
2018-03-24T17:15:00.566Z,35.70
2018-03-24T17:17:35.873Z,36.30
2018-03-24T17:20:11.368Z,36.80
2018-03-24T17:22:46.675Z,36.50
2018-03-24T17:25:22.718Z,37.70
2018-03-24T17:27:58.892Z,37.80
2018-03-24T17:30:34.134Z,37.80
2018-03-24T17:33:10.107Z,37.70
2018-03-24T17:35:45.946Z,37.70
2018-03-24T17:38:21.236Z,37.60
2018-03-24T17:40:56.386Z,37.80
2018-03-24T17:43:32.318Z,38.40
2018-03-24T17:46:08.000Z,38.40
2018-03-24T17:48:43.321Z,38.00
2018-03-24T17:51:18.650Z,38.40
2018-03-24T17:53:54.656Z,38.90
2018-03-24T17:56:30.104Z,38.90
2018-03-24T17:59:05.349Z,38.70
2018-03-24T18:01:41.413Z,39.10
2018-03-24T18:04:16.539Z,39.10
2018-03-24T18:06:51.849Z,39.60
2018-03-24T18:09:26.978Z,39.60
2018-03-24T18:12:03.165Z,39.80
2018-03-24T18:14:38.340Z,39.80
2018-03-24T18:17:13.602Z,39.90
2018-03-24T18:19:48.847Z,39.80
2018-03-24T18:22:24.380Z,40.10
2018-03-24T18:24:59.715Z,40.40
2018-03-24T18:27:35.077Z,40.30
2018-03-24T18:30:10.263Z,40.20
2018-03-24T18:32:45.890Z,40.40
2018-03-24T18:35:21.123Z,40.90
2018-03-24T18:37:56.265Z,41.70
2018-03-24T18:40:31.400Z,40.90
2018-03-24T18:43:06.658Z,41.10
2018-03-24T18:45:42.070Z,41.30
2018-03-24T18:48:17.412Z,41.90
2018-03-24T18:50:52.616Z,41.90
2018-03-24T18:53:27.900Z,43.40
2018-03-24T18:56:03.393Z,44.50
2018-03-24T18:58:38.655Z,44.70
2018-03-24T19:01:14.747Z,45.80
2018-03-24T19:03:50.083Z,45.70
2018-03-24T19:06:26.523Z,46.20
2018-03-24T19:09:02.417Z,49.00
2018-03-24T19:11:37.649Z,49.00
2018-03-24T19:14:13.656Z,48.40
2018-03-24T19:16:48.939Z,48.40
2018-03-24T19:19:24.139Z,49.00
2018-03-24T19:22:00.119Z,48.40
2018-03-24T19:24:35.243Z,48.40
2018-03-24T19:27:10.387Z,48.90
2018-03-24T19:29:46.465Z,51.10
2018-03-24T19:32:21.571Z,51.10
2018-03-24T19:34:56.893Z,52.40
2018-03-24T19:37:32.049Z,51.30
2018-03-24T19:40:07.317Z,51.80
2018-03-24T19:42:42.465Z,51.80
2018-03-24T19:45:18.540Z,54.00
2018-03-24T19:47:53.843Z,54.00
2018-03-24T19:50:29.125Z,54.40
2018-03-24T19:53:04.575Z,54.60
2018-03-24T19:55:40.646Z,54.20
2018-03-24T19:58:15.905Z,54.20
2018-03-24T20:00:51.487Z,54.00
2018-03-24T20:03:26.788Z,56.40
2018-03-24T20:06:02.282Z,54.90
2018-03-24T20:08:37.615Z,55.50
2018-03-24T20:11:12.951Z,56.20
2018-03-24T20:13:48.232Z,56.20
2018-03-24T20:16:23.594Z,56.40
2018-03-24T20:18:58.766Z,57.00
2018-03-24T20:21:33.908Z,57.50
2018-03-24T20:24:09.134Z,57.80
2018-03-24T20:26:45.153Z,57.30
2018-03-24T20:29:20.515Z,57.20
2018-03-24T20:31:55.858Z,57.90
2018-03-24T20:34:31.120Z,58.80
2018-03-24T20:37:06.244Z,59.10
2018-03-24T20:39:42.300Z,59.70
2018-03-24T20:42:18.489Z,59.80
2018-03-24T20:44:53.669Z,59.80
2018-03-24T20:47:29.618Z,61.40
2018-03-24T20:50:05.079Z,62.20
2018-03-24T20:52:40.258Z,61.40
2018-03-24T20:55:15.832Z,62.30
2018-03-24T20:57:51.216Z,62.80
2018-03-24T21:00:26.569Z,63.30
2018-03-24T21:03:01.843Z,63.60
2018-03-24T21:05:37.974Z,63.60
2018-03-24T21:08:14.897Z,63.60
2018-03-24T21:10:50.904Z,65.00
2018-03-24T21:13:26.987Z,65.60
2018-03-24T21:16:02.921Z,66.40
2018-03-24T21:18:38.131Z,66.10
2018-03-24T21:21:13.319Z,66.80
2018-03-24T21:23:49.618Z,67.40
2018-03-24T21:26:24.830Z,67.30
2018-03-24T21:29:00.274Z,67.90
2018-03-24T21:31:35.330Z,67.20
2018-03-24T21:34:11.273Z,67.70
2018-03-24T21:36:46.576Z,67.60
2018-03-24T21:39:22.089Z,68.00
2018-03-24T21:41:57.306Z,68.50
2018-03-24T21:44:32.674Z,68.90
2018-03-24T21:47:08.021Z,69.00
2018-03-24T21:49:43.306Z,69.10
2018-03-24T21:52:18.623Z,69.20
2018-03-24T21:54:53.852Z,69.20
2018-03-24T21:57:29.256Z,69.50
2018-03-24T22:00:04.537Z,70.10
2018-03-24T22:02:40.557Z,71.80
2018-03-24T22:05:15.696Z,70.60
2018-03-24T22:07:52.374Z,70.50
2018-03-24T22:10:27.672Z,70.50
2018-03-24T22:13:02.953Z,70.90
2018-03-24T22:15:38.241Z,70.60
2018-03-24T22:18:13.792Z,70.50
2018-03-24T22:20:49.719Z,69.60
2018-03-24T22:23:25.970Z,69.60
2018-03-24T22:26:01.096Z,69.60
2018-03-24T22:28:36.724Z,69.80
2018-03-24T22:31:12.097Z,69.80
2018-03-24T22:33:47.496Z,69.60
2018-03-24T22:36:22.819Z,70.10
2018-03-24T22:38:58.163Z,70.30
2018-03-24T22:41:33.418Z,70.10
2018-03-24T22:44:09.542Z,70.80
2018-03-24T22:46:44.655Z,70.80
2018-03-24T22:49:20.033Z,71.20
2018-03-24T22:51:55.382Z,71.40
2018-03-24T22:54:30.755Z,71.90
2018-03-24T22:57:06.068Z,72.20
2018-03-24T22:59:42.085Z,73.20
2018-03-24T23:02:17.354Z,73.20
2018-03-24T23:04:52.473Z,73.10
2018-03-24T23:07:27.596Z,73.80
2018-03-24T23:10:02.893Z,74.00
2018-03-24T23:12:38.021Z,74.20
2018-03-24T23:15:13.229Z,74.50
2018-03-24T23:17:48.527Z,74.50
2018-03-24T23:20:23.703Z,74.90
2018-03-24T23:22:59.033Z,74.80
2018-03-24T23:25:34.325Z,76.10
2018-03-24T23:28:09.667Z,75.10
2018-03-24T23:30:45.053Z,75.10
2018-03-24T23:33:20.982Z,75.20
2018-03-24T23:35:56.368Z,75.10
2018-03-24T23:38:31.585Z,75.20
2018-03-24T23:41:06.841Z,75.70
2018-03-24T23:43:42.001Z,75.60
2018-03-24T23:46:17.632Z,75.70
2018-03-24T23:48:52.806Z,75.90
2018-03-24T23:51:28.371Z,76.40
2018-03-24T23:54:03.589Z,76.70
2018-03-24T23:56:38.869Z,76.50
2018-03-24T23:59:14.224Z,76.20
